createdAt,value
2022-10-03T00:05:23.343Z,15.07
2022-10-03T00:08:16.155Z,14.50
2022-10-03T00:10:57.324Z,14.80
2022-10-03T00:13:33.784Z,13.47
2022-10-03T00:16:12.866Z,15.57
2022-10-03T00:18:51.180Z,13.73
2022-10-03T00:29:43.084Z,14.57
2022-10-03T00:32:24.284Z,13.33
2022-10-03T00:35:13.058Z,13.80
2022-10-03T00:37:47.556Z,12.63
2022-10-03T00:40:36.715Z,16.10
2022-10-03T00:43:54.827Z,14.57
2022-10-03T00:51:44.525Z,13.90
2022-10-03T00:54:42.187Z,13.40
2022-10-03T00:57:31.214Z,14.47
2022-10-03T01:00:23.427Z,15.70
2022-10-03T01:03:09.508Z,15.07
2022-10-03T01:05:48.528Z,15.07
2022-10-03T01:14:16.777Z,14.83
2022-10-03T01:16:59.406Z,16.70
2022-10-03T01:19:45.331Z,16.27
2022-10-03T01:22:38.395Z,17.80
2022-10-03T01:25:13.039Z,16.63
2022-10-03T01:28:01.596Z,15.33
2022-10-03T01:36:15.686Z,19.70
2022-10-03T01:38:48.416Z,21.00
2022-10-03T01:41:24.804Z,19.30
2022-10-03T01:43:55.934Z,27.40
2022-10-03T01:46:28.547Z,19.63
2022-10-03T01:49:02.767Z,20.00
2022-10-03T01:51:42.972Z,26.83
2022-10-03T02:02:12.793Z,19.43
2022-10-03T02:04:49.206Z,26.00
2022-10-03T02:07:26.115Z,18.77
2022-10-03T02:10:07.404Z,18.70
2022-10-03T02:12:40.429Z,22.17
2022-10-03T02:15:18.086Z,19.83
2022-10-03T02:17:55.876Z,21.37
2022-10-03T02:25:49.826Z,18.93
2022-10-03T02:28:35.740Z,17.93
2022-10-03T02:31:31.795Z,25.17
2022-10-03T02:34:24.438Z,19.43
2022-10-03T02:37:27.528Z,19.97
2022-10-03T02:40:37.685Z,31.67
2022-10-03T02:49:50.036Z,31.20
2022-10-03T02:52:45.126Z,34.37
2022-10-03T02:55:36.045Z,34.90
2022-10-03T02:58:31.209Z,29.17
2022-10-03T03:01:22.739Z,21.20
2022-10-03T03:04:49.392Z,43.07
2022-10-03T03:10:30.315Z,57.20
2022-10-03T03:13:54.745Z,42.20
2022-10-03T03:16:47.348Z,43.67
2022-10-03T03:19:39.146Z,52.67
2022-10-03T03:22:23.154Z,65.10
2022-10-03T03:25:14.102Z,54.80
2022-10-03T03:30:53.173Z,58.07
2022-10-03T03:33:33.518Z,65.77
2022-10-03T03:36:10.157Z,65.73
2022-10-03T03:38:47.237Z,88.63
2022-10-03T03:41:31.935Z,67.43
2022-10-03T03:44:13.924Z,74.40
2022-10-03T03:49:38.907Z,27.57
2022-10-03T03:52:23.766Z,34.27
2022-10-03T03:55:06.967Z,24.30
2022-10-03T03:58:09.987Z,23.20
2022-10-03T04:00:55.842Z,70.47
2022-10-03T04:03:38.187Z,42.23
2022-10-03T04:06:17.887Z,46.67
2022-10-03T04:14:14.686Z,25.13
2022-10-03T04:17:21.895Z,23.73
2022-10-03T04:20:02.434Z,44.60
2022-10-03T04:22:54.584Z,66.97
2022-10-03T04:26:02.044Z,39.63
2022-10-03T04:28:56.978Z,22.37
2022-10-03T04:39:05.648Z,20.23
2022-10-03T04:41:43.360Z,20.40
2022-10-03T04:44:25.036Z,20.43
2022-10-03T04:46:57.065Z,19.03
2022-10-03T04:49:31.756Z,20.17
2022-10-03T04:52:02.867Z,20.73
2022-10-03T04:54:44.152Z,18.57
2022-10-03T05:02:30.097Z,15.00
2022-10-03T05:05:30.745Z,15.20
2022-10-03T05:08:12.908Z,13.90
2022-10-03T05:10:59.124Z,12.40
2022-10-03T05:13:39.364Z,14.93
2022-10-03T05:16:17.026Z,14.67
2022-10-03T05:26:47.320Z,16.60
2022-10-03T05:29:31.295Z,14.83
2022-10-03T05:32:13.596Z,15.60
2022-10-03T05:34:55.316Z,16.17
2022-10-03T05:37:42.588Z,16.73
2022-10-03T05:40:17.446Z,19.87
2022-10-03T05:43:12.126Z,18.60
2022-10-03T05:51:18.782Z,16.03
2022-10-03T05:54:19.616Z,16.17
2022-10-03T05:57:07.349Z,18.07
2022-10-03T06:00:05.426Z,19.87
2022-10-03T06:02:54.290Z,16.90
2022-10-03T06:05:31.706Z,18.57
2022-10-03T06:08:33.440Z,17.97
2022-10-03T06:14:17.075Z,18.37
2022-10-03T06:16:53.750Z,19.90
2022-10-03T06:19:39.587Z,21.90
2022-10-03T06:22:54.898Z,21.13
2022-10-03T06:25:53.714Z,23.47
2022-10-03T06:28:51.021Z,21.93
2022-10-03T06:37:49.805Z,23.63
2022-10-03T06:41:03.544Z,23.47
2022-10-03T06:43:47.233Z,22.50
2022-10-03T06:46:36.031Z,20.93
2022-10-03T06:49:37.804Z,20.20
2022-10-03T06:52:31.645Z,14.33
2022-10-03T06:55:28.886Z,19.73
2022-10-03T07:03:35.731Z,16.43
2022-10-03T07:06:17.963Z,14.93
2022-10-03T07:09:25.286Z,13.30
2022-10-03T07:12:26.344Z,14.63
2022-10-03T07:15:43.749Z,14.63
2022-10-03T07:18:49.836Z,18.40
2022-10-03T07:21:56.230Z,16.90
2022-10-03T07:27:50.155Z,18.03
2022-10-03T07:30:20.766Z,15.57
2022-10-03T07:33:39.190Z,15.30
2022-10-03T07:36:58.838Z,16.90
2022-10-03T07:39:59.917Z,17.30
2022-10-03T07:43:01.926Z,17.27
2022-10-03T07:49:01.655Z,18.23
2022-10-03T07:51:41.519Z,15.80
2022-10-03T07:54:44.605Z,14.77
2022-10-03T07:57:40.214Z,15.67
2022-10-03T08:00:27.630Z,13.53
2022-10-03T08:03:25.727Z,13.37
2022-10-03T08:13:58.025Z,11.23
2022-10-03T08:16:48.650Z,9.63
2022-10-03T08:19:36.548Z,9.90
2022-10-03T08:22:13.027Z,8.37
2022-10-03T08:25:11.024Z,6.60
2022-10-03T08:28:00.128Z,6.10
2022-10-03T08:38:56.474Z,5.57
2022-10-03T08:42:16.287Z,4.27
2022-10-03T08:45:04.887Z,4.40
2022-10-03T08:47:55.286Z,3.90
2022-10-03T08:50:46.390Z,4.00
2022-10-03T08:53:49.357Z,3.83
2022-10-03T08:59:57.077Z,3.40
2022-10-03T09:03:32.622Z,3.00
2022-10-03T09:06:44.800Z,3.17
2022-10-03T09:09:47.769Z,3.23
2022-10-03T09:12:42.639Z,4.10
2022-10-03T09:24:18.030Z,5.13
2022-10-03T09:27:20.742Z,4.53
2022-10-03T09:30:18.129Z,3.43
2022-10-03T09:33:21.594Z,3.00
2022-10-03T09:36:37.104Z,2.50
2022-10-03T09:39:54.074Z,2.90
2022-10-03T09:48:09.764Z,2.60
2022-10-03T09:51:06.314Z,2.87
2022-10-03T09:54:12.328Z,2.80
2022-10-03T09:57:22.635Z,3.53
2022-10-03T10:00:15.920Z,3.70
2022-10-03T10:03:06.417Z,2.77
2022-10-03T10:06:15.107Z,3.07
2022-10-03T10:14:38.674Z,2.80
2022-10-03T10:18:00.101Z,2.33
2022-10-03T10:21:02.806Z,2.40
2022-10-03T10:23:47.850Z,2.77
2022-10-03T10:27:05.017Z,2.00
2022-10-03T10:29:51.686Z,2.10
2022-10-03T10:38:20.995Z,2.10
2022-10-03T10:41:39.517Z,2.07
2022-10-03T10:44:46.679Z,2.27
2022-10-03T10:47:58.124Z,2.27
2022-10-03T10:51:07.998Z,2.30
2022-10-03T11:02:44.728Z,2.23
2022-10-03T11:06:11.794Z,2.40
2022-10-03T11:09:24.854Z,3.87
2022-10-03T11:12:39.467Z,3.27
2022-10-03T11:15:42.956Z,4.00
2022-10-03T11:18:50.106Z,3.07
2022-10-03T11:27:37.745Z,2.97
2022-10-03T11:30:50.546Z,3.40
2022-10-03T11:34:18.065Z,2.87
2022-10-03T11:37:06.217Z,3.07
2022-10-03T11:39:48.097Z,3.83
2022-10-03T11:42:29.847Z,3.47
2022-10-03T11:45:02.837Z,3.60
2022-10-03T11:53:16.187Z,3.53
2022-10-03T11:55:52.349Z,3.40
2022-10-03T11:58:43.485Z,3.40
2022-10-03T12:01:31.902Z,2.53
2022-10-03T12:04:24.795Z,3.23
2022-10-03T12:07:22.017Z,2.90
2022-10-03T12:15:18.893Z,2.83
2022-10-03T12:17:56.507Z,3.10
2022-10-03T12:20:33.027Z,2.20
2022-10-03T12:23:17.624Z,3.23
2022-10-03T12:25:49.374Z,3.03
2022-10-03T12:28:24.460Z,3.00
2022-10-03T12:31:01.706Z,2.80
2022-10-03T12:42:00.957Z,3.30
2022-10-03T12:44:41.148Z,3.33
2022-10-03T12:47:51.090Z,4.60
2022-10-03T12:50:38.698Z,3.87
2022-10-03T12:53:44.964Z,2.50
2022-10-03T12:56:29.877Z,3.03
2022-10-03T13:07:25.754Z,3.83
2022-10-03T13:10:15.765Z,3.47
2022-10-03T13:12:53.177Z,3.60
2022-10-03T13:15:55.940Z,3.37
2022-10-03T13:18:50.234Z,2.83
2022-10-03T13:21:46.244Z,2.90
2022-10-03T13:27:13.060Z,3.37
2022-10-03T13:29:57.594Z,3.20
2022-10-03T13:32:36.266Z,3.03
2022-10-03T13:35:45.594Z,2.53
2022-10-03T13:38:48.054Z,3.40
2022-10-03T13:41:32.347Z,3.07
2022-10-03T13:52:26.644Z,3.50
2022-10-03T13:55:27.028Z,2.70
2022-10-03T13:58:16.168Z,3.23
2022-10-03T14:00:59.834Z,3.67
2022-10-03T14:03:43.366Z,3.40
2022-10-03T14:06:22.158Z,3.00
2022-10-03T14:14:36.195Z,3.67
2022-10-03T14:17:14.999Z,4.20
2022-10-03T14:20:11.518Z,4.40
2022-10-03T14:23:37.447Z,3.43
2022-10-03T14:26:17.384Z,2.30
2022-10-03T14:28:52.727Z,2.60
2022-10-03T14:36:36.356Z,3.60
2022-10-03T14:39:33.747Z,3.20
2022-10-03T14:42:30.467Z,3.37
2022-10-03T14:45:08.617Z,3.13
2022-10-03T14:47:44.145Z,3.23
2022-10-03T14:50:22.448Z,3.97
2022-10-03T14:56:07.744Z,3.43
2022-10-03T14:58:48.007Z,3.23
2022-10-03T15:01:20.537Z,3.17
2022-10-03T15:04:01.536Z,3.30
2022-10-03T15:06:53.285Z,3.77
2022-10-03T15:09:29.956Z,3.33
2022-10-03T15:12:05.674Z,3.40
2022-10-03T15:19:49.204Z,3.20
2022-10-03T15:22:36.056Z,3.27
2022-10-03T15:25:09.957Z,2.67
2022-10-03T15:27:42.396Z,3.10
2022-10-03T15:30:22.517Z,2.43
2022-10-03T15:32:56.824Z,2.40
2022-10-03T15:35:35.124Z,2.97
2022-10-03T15:43:28.470Z,3.07
2022-10-03T15:45:58.191Z,3.37
2022-10-03T15:48:30.115Z,3.77
2022-10-03T15:51:07.695Z,3.50
2022-10-03T15:53:40.586Z,4.13
2022-10-03T15:56:15.798Z,3.37
2022-10-03T15:58:55.425Z,2.97
2022-10-03T16:09:31.736Z,3.57
2022-10-03T16:12:17.146Z,3.57
2022-10-03T16:14:55.546Z,2.93
2022-10-03T16:17:33.977Z,3.37
2022-10-03T16:20:10.015Z,2.90
2022-10-03T16:22:47.034Z,3.57
2022-10-03T16:25:22.464Z,3.00
2022-10-03T16:31:18.551Z,3.73
2022-10-03T16:33:57.232Z,4.23
2022-10-03T16:36:27.894Z,3.60
2022-10-03T16:39:05.597Z,3.60
2022-10-03T16:41:41.135Z,3.80
2022-10-03T16:44:20.694Z,4.27
2022-10-03T16:46:51.364Z,3.23
2022-10-03T16:52:54.386Z,4.10
2022-10-03T16:55:32.537Z,3.50
2022-10-03T16:58:11.588Z,3.47
2022-10-03T17:01:04.026Z,3.70
2022-10-03T17:03:49.444Z,3.93
2022-10-03T17:06:24.784Z,3.63
2022-10-03T17:14:46.286Z,4.40
2022-10-03T17:17:28.176Z,4.07
2022-10-03T17:20:02.448Z,3.70
2022-10-03T17:22:39.945Z,4.43
2022-10-03T17:25:27.385Z,3.60
2022-10-03T17:28:00.326Z,3.90
2022-10-03T17:30:40.957Z,4.90
2022-10-03T17:38:49.888Z,3.30
2022-10-03T17:41:29.504Z,4.00
2022-10-03T17:44:17.202Z,3.20
2022-10-03T17:46:58.984Z,4.13
2022-10-03T17:49:40.476Z,3.50
2022-10-03T17:52:16.391Z,3.57
2022-10-03T18:01:01.178Z,4.27
2022-10-03T18:03:35.887Z,4.57
2022-10-03T18:06:39.966Z,4.03
2022-10-03T18:09:19.288Z,4.57
2022-10-03T18:11:50.129Z,3.63
2022-10-03T18:14:31.468Z,4.30
2022-10-03T18:23:01.267Z,4.17
2022-10-03T18:26:18.071Z,4.10
2022-10-03T18:28:48.906Z,4.47
2022-10-03T18:31:22.958Z,4.00
2022-10-03T18:33:57.802Z,4.57
2022-10-03T18:36:30.189Z,3.47
2022-10-03T18:47:09.159Z,4.03
2022-10-03T18:49:40.760Z,3.43
2022-10-03T18:52:13.960Z,3.63
2022-10-03T18:54:54.959Z,4.47
2022-10-03T18:57:26.390Z,4.20
2022-10-03T19:00:03.219Z,3.90
2022-10-03T19:02:39.020Z,4.07
2022-10-03T19:10:45.011Z,5.30
2022-10-03T19:13:25.038Z,3.73
2022-10-03T19:16:19.020Z,3.77
2022-10-03T19:19:01.831Z,3.57
2022-10-03T19:21:38.420Z,3.43
2022-10-03T19:24:12.111Z,3.30
2022-10-03T19:34:48.465Z,3.10
2022-10-03T19:37:20.729Z,2.93
2022-10-03T19:39:51.866Z,3.00
2022-10-03T19:42:36.056Z,3.20
2022-10-03T19:45:06.959Z,2.90
2022-10-03T19:47:37.930Z,3.13
2022-10-03T19:56:11.884Z,3.67
2022-10-03T19:58:40.109Z,4.00
2022-10-03T20:01:09.288Z,3.47
2022-10-03T20:03:41.346Z,3.80
2022-10-03T20:06:18.669Z,3.87
2022-10-03T20:08:51.016Z,3.70
2022-10-03T20:11:37.813Z,3.50
2022-10-03T20:14:09.720Z,3.40
2022-10-03T20:21:43.356Z,4.07
2022-10-03T20:24:23.030Z,4.00
2022-10-03T20:27:01.677Z,3.93
2022-10-03T20:29:39.076Z,3.63
2022-10-03T20:32:14.879Z,3.63
2022-10-03T20:34:51.079Z,3.50
2022-10-03T20:37:36.979Z,3.20
2022-10-03T20:45:15.390Z,4.37
2022-10-03T20:48:03.859Z,4.33
2022-10-03T20:50:35.496Z,4.23
2022-10-03T20:53:10.376Z,3.80
2022-10-03T20:55:44.516Z,4.03
2022-10-03T20:58:19.022Z,4.43
2022-10-03T21:00:50.095Z,3.90
2022-10-03T21:08:26.526Z,3.77
2022-10-03T21:10:57.999Z,4.03
2022-10-03T21:13:32.449Z,3.63
2022-10-03T21:16:02.206Z,3.57
2022-10-03T21:18:32.799Z,3.90
2022-10-03T21:21:06.626Z,3.13
2022-10-03T21:23:41.828Z,3.13
2022-10-03T21:31:39.290Z,3.00
2022-10-03T21:34:17.936Z,3.53
2022-10-03T21:36:51.476Z,3.50
2022-10-03T21:39:29.406Z,3.60
2022-10-03T21:42:06.039Z,3.53
2022-10-03T21:45:00.214Z,2.97
2022-10-03T21:55:45.400Z,3.47
2022-10-03T21:58:31.676Z,3.47
2022-10-03T22:01:12.703Z,3.70
2022-10-03T22:03:45.506Z,3.50
2022-10-03T22:06:19.446Z,3.37
2022-10-03T22:08:52.706Z,3.27
2022-10-03T22:11:42.918Z,3.27
2022-10-03T22:19:21.498Z,3.77
2022-10-03T22:22:05.975Z,3.73
2022-10-03T22:24:43.916Z,3.30
2022-10-03T22:27:17.748Z,3.30
2022-10-03T22:29:55.667Z,3.23
2022-10-03T22:32:29.026Z,3.67
2022-10-03T22:35:08.451Z,3.10
2022-10-03T22:42:45.006Z,3.70
2022-10-03T22:45:15.845Z,4.30
2022-10-03T22:47:46.165Z,3.70
2022-10-03T22:50:18.030Z,3.60
2022-10-03T22:52:50.474Z,3.70
2022-10-03T22:55:21.215Z,3.63
2022-10-03T22:57:52.128Z,3.20
2022-10-03T23:03:24.056Z,2.90
2022-10-03T23:06:17.969Z,2.93
2022-10-03T23:08:57.237Z,2.73
2022-10-03T23:11:27.799Z,2.90
2022-10-03T23:13:57.972Z,2.97
2022-10-03T23:16:47.547Z,3.90
2022-10-03T23:19:25.346Z,3.47
2022-10-03T23:27:23.167Z,3.00
2022-10-03T23:30:39.719Z,3.47
2022-10-03T23:33:17.016Z,2.30
2022-10-03T23:35:45.026Z,2.80
2022-10-03T23:38:50.411Z,2.93
2022-10-03T23:41:46.017Z,3.20
2022-10-03T23:49:49.610Z,2.50
2022-10-03T23:52:22.346Z,2.87
2022-10-03T23:54:50.590Z,2.13
2022-10-03T23:57:20.359Z,2.80
2022-10-03T23:59:49.658Z,3.20
